Home   Weather   France   Verdun   Past weeks
Flag for France

Past Weather in Verdun, Meuse, France — Yesterday and Last 2 Weeks

Currently: 27 °F. Passing clouds. (Weather station: Brive / Souillac, France). See more current weather

Past Weather in Verdun — Graph

°F

Verdun Temperature Yesterday

Maximum temperature yesterday: 41 °F (at 2:30 pm)
Minimum temperature yesterday: 28 °F (at 10:30 pm)
Average temperature yesterday: 36 °F

High & Low Weather Summary for the Past Weeks

 TemperatureHumidityPressure
High48 °F (Jan 15, 2:00 pm)100% (Jan 15, 9:30 pm)30.42 "Hg (Jan 15, 9:30 pm)
Low19 °F (Jan 30, 6:30 am)53% (Jan 24, 2:30 pm)29.09 "Hg (Jan 17, 6:00 am)
Average34 °F85%30.04 "Hg
* Reported Jan 15 9:00 am — Jan 30 9:00 am, Verdun. Weather by CustomWeather, © 2023

Note: Actual official high and low records may vary slightly from our data, if they occured in-between our weather recording intervals... More about our weather records

Verdun Weather History for the Previous 24 Hours

Scroll right to see more
 ConditionsComfort  
Time TempWeatherWind HumidityBarometerVisibility
9:00 am
Mon, Jan 30
21 °FIce fog.No wind93%30.42 "Hg1 mi
8:30 am19 °FIce fog.No wind93%30.42 "Hg0 mi
8:00 am19 °FIce fog.No wind100%30.39 "Hg1 mi
7:00 am19 °FIce fog.No wind93%30.39 "HgN/A
6:30 am19 °FClear.1 mph100%30.39 "Hg10 mi
6:00 am21 °FClear.No wind86%30.39 "Hg10 mi
5:30 am21 °FClear.1 mph93%30.36 "Hg10 mi
5:00 am21 °FClear.No wind93%30.39 "Hg10 mi
4:30 am23 °FClear.2 mph93%30.39 "Hg5 mi
4:00 am21 °FClear.2 mph93%30.39 "Hg10 mi
3:30 am21 °FClear.No wind93%30.39 "Hg10 mi
3:00 am21 °FClear.No wind93%30.36 "Hg10 mi
2:30 am23 °FClear.No wind93%30.36 "Hg10 mi
2:00 am23 °FClear.1 mph93%30.39 "Hg10 mi
12:30 am25 °FClear.1 mph93%30.36 "Hg6 mi
12:00 am25 °FClear.1 mph93%30.36 "Hg10 mi
11:00 pm
Sun, Jan 29
28 °FClear.3 mph86%30.39 "Hg10 mi
10:30 pm28 °FClear.6 mph86%30.39 "Hg10 mi
10:00 pm30 °FClear.6 mph86%30.39 "Hg10 mi
9:30 pm32 °FClear.6 mph80%30.39 "Hg10 mi
9:00 pm34 °FClear.6 mph75%30.36 "Hg10 mi
8:30 pm34 °FPassing clouds.6 mph75%30.36 "HgN/A
8:00 pm30 °FClear.3 mph80%30.36 "Hg10 mi
7:00 pm32 °FClear.2 mph80%30.36 "Hg10 mi
6:30 pm34 °FPassing clouds.3 mph75%30.36 "HgN/A
6:00 pm37 °FPassing clouds.3 mph65%30.33 "HgN/A
5:00 pm41 °FPassing clouds.3 mph57%30.33 "HgN/A
4:30 pm41 °FPassing clouds.5 mph57%30.33 "HgN/A
4:00 pm41 °FPartly sunny.6 mph57%30.33 "HgN/A
3:00 pm41 °FPartly sunny.2 mph61%30.30 "HgN/A
2:30 pm41 °FOvercast.2 mph57%30.33 "HgN/A
2:00 pm39 °FOvercast.5 mph61%30.33 "HgN/A
1:00 pm39 °FOvercast.6 mph61%30.36 "HgN/A
12:30 pm39 °FOvercast.6 mph61%30.36 "HgN/A
12:00 pm37 °FOvercast.7 mph65%30.36 "HgN/A
11:30 am37 °FOvercast.8 mph65%30.36 "HgN/A
11:00 am37 °FOvercast.7 mph65%30.36 "HgN/A
10:30 am37 °FOvercast.7 mph65%30.36 "HgN/A
10:00 am37 °FOvercast.5 mph65%30.33 "HgN/A
Weather by CustomWeather, © 2023

See weather overview